createdAt,value
2019-01-23T00:01:01.826Z,2.35
2019-01-23T00:03:34.148Z,2.52
2019-01-23T00:06:05.881Z,2.46
2019-01-23T00:08:37.515Z,2.48
2019-01-23T00:11:09.065Z,2.47
2019-01-23T00:13:40.444Z,2.41
2019-01-23T00:16:12.269Z,2.46
2019-01-23T00:18:43.974Z,2.54
2019-01-23T00:21:15.650Z,2.62
2019-01-23T00:23:47.201Z,2.67
2019-01-23T00:26:18.664Z,2.74
2019-01-23T00:28:50.187Z,2.81
2019-01-23T00:31:21.728Z,2.82
2019-01-23T00:33:53.020Z,2.94
2019-01-23T00:36:24.394Z,2.78
2019-01-23T00:38:56.145Z,2.74
2019-01-23T00:41:27.540Z,2.68
2019-01-23T00:43:59.217Z,2.79
2019-01-23T00:46:30.739Z,2.68
2019-01-23T00:49:02.323Z,2.70
2019-01-23T00:51:33.907Z,2.66
2019-01-23T00:54:06.077Z,2.70
2019-01-23T00:56:37.836Z,2.62
2019-01-23T00:59:09.622Z,2.55
2019-01-23T01:01:40.875Z,2.54
2019-01-23T01:04:12.499Z,2.64
2019-01-23T01:06:44.028Z,2.74
2019-01-23T01:09:15.804Z,2.80
2019-01-23T01:11:47.235Z,2.75
2019-01-23T01:14:18.667Z,2.82
2019-01-23T01:16:50.289Z,2.76
2019-01-23T01:19:21.902Z,2.68
2019-01-23T01:21:53.402Z,2.80
2019-01-23T01:24:25.165Z,2.87
2019-01-23T01:26:56.643Z,2.92
2019-01-23T01:29:28.157Z,2.92
2019-01-23T01:31:59.671Z,2.92
2019-01-23T01:34:31.140Z,2.98
2019-01-23T01:37:02.507Z,3.01
2019-01-23T01:39:34.232Z,3.12
2019-01-23T01:42:06.075Z,3.26
2019-01-23T01:44:37.625Z,3.04
2019-01-23T01:47:09.111Z,3.07
2019-01-23T01:49:40.552Z,2.93
2019-01-23T01:52:11.864Z,3.13
2019-01-23T01:54:43.117Z,3.11
2019-01-23T01:57:14.617Z,3.20
2019-01-23T01:59:45.953Z,3.10
2019-01-23T02:02:17.818Z,2.97
2019-01-23T02:04:49.503Z,2.83
2019-01-23T02:07:20.963Z,2.80
2019-01-23T02:09:52.697Z,2.78
2019-01-23T02:12:24.124Z,2.81
2019-01-23T02:14:55.975Z,2.76
2019-01-23T02:17:27.757Z,2.69
2019-01-23T02:19:59.412Z,2.72
2019-01-23T02:22:31.081Z,2.58
2019-01-23T02:25:02.656Z,2.54
2019-01-23T02:27:34.155Z,2.52
2019-01-23T02:30:06.702Z,2.49
2019-01-23T02:32:38.209Z,2.56
2019-01-23T02:35:11.107Z,2.68
2019-01-23T02:37:42.762Z,2.72
2019-01-23T02:40:17.041Z,2.84
2019-01-23T02:42:48.450Z,2.76
2019-01-23T02:45:22.023Z,2.66
2019-01-23T02:47:53.704Z,2.71
2019-01-23T02:50:25.445Z,2.78
2019-01-23T02:52:57.116Z,2.81
2019-01-23T02:55:28.654Z,2.94
2019-01-23T02:58:00.484Z,2.76
2019-01-23T03:00:32.058Z,2.71
2019-01-23T03:03:03.728Z,2.62
2019-01-23T03:05:35.285Z,2.66
2019-01-23T03:08:06.823Z,2.66
2019-01-23T03:10:38.361Z,2.64
2019-01-23T03:13:09.740Z,2.82
2019-01-23T03:15:41.503Z,2.70
2019-01-23T03:18:12.841Z,2.64
2019-01-23T03:20:44.520Z,2.59
2019-01-23T03:23:15.930Z,2.81
2019-01-23T03:25:47.727Z,2.77
2019-01-23T03:28:19.086Z,2.40
2019-01-23T03:30:50.771Z,2.39
2019-01-23T03:33:22.145Z,2.37
2019-01-23T03:35:53.586Z,2.57
2019-01-23T03:38:25.438Z,2.62
2019-01-23T03:40:57.222Z,2.56
2019-01-23T03:43:28.638Z,2.52
2019-01-23T03:46:00.303Z,2.59
2019-01-23T03:48:31.812Z,2.57
2019-01-23T03:51:03.231Z,2.60
2019-01-23T03:53:34.914Z,2.70
2019-01-23T03:56:06.612Z,2.66
2019-01-23T03:58:38.308Z,2.79
2019-01-23T04:01:09.644Z,2.66
2019-01-23T04:03:40.978Z,2.60
2019-01-23T04:06:12.386Z,2.64
2019-01-23T04:08:43.922Z,2.59
2019-01-23T04:11:15.490Z,2.44
2019-01-23T04:13:47.129Z,2.44
2019-01-23T04:16:18.686Z,2.42
2019-01-23T04:18:50.472Z,2.41
2019-01-23T04:21:22.045Z,2.46
2019-01-23T04:23:53.693Z,2.34
2019-01-23T04:26:25.259Z,2.43
2019-01-23T04:28:57.034Z,2.52
2019-01-23T04:31:28.648Z,2.58
2019-01-23T04:34:01.233Z,2.53
2019-01-23T04:36:32.899Z,2.50
2019-01-23T04:39:05.815Z,2.51
2019-01-23T04:41:37.555Z,2.57
2019-01-23T04:44:09.401Z,2.50
2019-01-23T04:46:40.906Z,2.58
2019-01-23T04:49:12.381Z,2.58
2019-01-23T04:52:14.637Z,2.58
2019-01-23T04:54:46.366Z,2.62
2019-01-23T04:57:17.656Z,2.65
2019-01-23T04:59:49.120Z,2.63
2019-01-23T05:02:20.390Z,2.60
2019-01-23T05:04:52.035Z,2.76
2019-01-23T05:07:23.820Z,2.78
2019-01-23T05:09:55.525Z,2.83
2019-01-23T05:12:27.460Z,2.61
2019-01-23T05:14:58.671Z,2.51
2019-01-23T05:17:30.334Z,2.63
2019-01-23T05:20:01.836Z,2.69
2019-01-23T05:22:33.136Z,2.67
2019-01-23T05:25:05.106Z,2.77
2019-01-23T05:27:37.385Z,2.75
2019-01-23T05:30:23.757Z,2.62
2019-01-23T05:32:55.720Z,2.61
2019-01-23T05:35:27.262Z,2.71
2019-01-23T05:37:58.758Z,2.69
2019-01-23T05:40:30.251Z,2.74
2019-01-23T05:43:02.850Z,2.71
2019-01-23T05:45:34.465Z,2.68
2019-01-23T05:48:06.171Z,2.79
2019-01-23T05:50:37.755Z,2.81
2019-01-23T05:53:09.042Z,2.78
2019-01-23T05:55:40.427Z,2.59
2019-01-23T05:58:12.160Z,2.57
2019-01-23T06:00:43.464Z,2.59
2019-01-23T06:03:14.994Z,2.59
2019-01-23T06:05:46.318Z,2.51
2019-01-23T06:08:17.819Z,2.49
2019-01-23T06:10:49.106Z,2.38
2019-01-23T06:13:20.964Z,2.45
2019-01-23T06:15:52.752Z,2.52
2019-01-23T06:18:24.410Z,2.48
2019-01-23T06:20:56.124Z,2.62
2019-01-23T06:23:27.691Z,2.59
2019-01-23T06:25:59.171Z,2.51
2019-01-23T06:28:30.617Z,2.45
2019-01-23T06:31:02.428Z,2.54
2019-01-23T06:33:34.006Z,2.55
2019-01-23T06:36:05.702Z,2.49
2019-01-23T06:38:37.083Z,2.53
2019-01-23T06:41:08.722Z,2.55
2019-01-23T06:43:40.255Z,2.55
2019-01-23T06:46:11.749Z,2.62
2019-01-23T06:48:43.611Z,2.51
2019-01-23T06:51:15.508Z,2.51
2019-01-23T06:53:47.023Z,2.59
2019-01-23T06:56:18.724Z,2.73
2019-01-23T06:58:50.427Z,2.72
2019-01-23T07:01:22.012Z,2.48
2019-01-23T07:03:53.723Z,2.60
2019-01-23T07:06:25.369Z,2.51
2019-01-23T07:08:56.846Z,2.49
2019-01-23T07:11:28.651Z,2.55
2019-01-23T07:14:00.471Z,2.56
2019-01-23T07:16:32.126Z,2.73
2019-01-23T07:19:03.875Z,2.84
2019-01-23T07:21:35.605Z,2.87
2019-01-23T07:24:07.342Z,2.88
2019-01-23T07:26:38.757Z,2.88
2019-01-23T07:29:10.405Z,3.01
2019-01-23T07:31:42.061Z,2.93
2019-01-23T07:34:13.601Z,2.88
2019-01-23T07:36:46.127Z,2.85
2019-01-23T07:39:17.633Z,2.81
2019-01-23T07:41:48.903Z,2.90
2019-01-23T07:44:20.164Z,3.09
2019-01-23T07:46:51.461Z,3.18
2019-01-23T07:49:23.052Z,3.27
2019-01-23T07:51:54.714Z,3.26
2019-01-23T07:54:26.484Z,3.23
2019-01-23T07:56:57.713Z,3.18
2019-01-23T07:59:29.049Z,3.21
2019-01-23T08:02:00.399Z,3.27
2019-01-23T08:04:31.628Z,3.24
2019-01-23T08:07:03.031Z,3.22
2019-01-23T08:09:34.360Z,3.07
2019-01-23T08:12:10.713Z,3.28
2019-01-23T08:14:38.783Z,3.20
2019-01-23T08:17:10.542Z,3.26
2019-01-23T08:19:42.027Z,3.36
2019-01-23T08:22:13.769Z,3.46
2019-01-23T08:24:46.219Z,3.44
2019-01-23T08:27:17.700Z,3.46
2019-01-23T08:29:49.325Z,3.67
2019-01-23T08:32:20.745Z,3.71
2019-01-23T08:34:52.411Z,3.66
2019-01-23T08:37:24.113Z,3.66
2019-01-23T08:39:55.595Z,3.67
2019-01-23T08:42:27.114Z,4.11
2019-01-23T08:44:58.848Z,4.07
2019-01-23T08:47:30.457Z,3.92
2019-01-23T08:50:02.052Z,3.87
2019-01-23T08:52:33.479Z,3.92
2019-01-23T08:55:05.120Z,4.28
2019-01-23T08:57:36.938Z,4.64
2019-01-23T09:00:09.080Z,4.66
2019-01-23T09:02:40.796Z,4.74
2019-01-23T09:05:12.616Z,4.73
2019-01-23T09:07:44.205Z,4.73
2019-01-23T09:10:18.432Z,4.83
2019-01-23T09:12:50.157Z,4.67
2019-01-23T09:15:21.959Z,4.85
2019-01-23T09:17:53.672Z,5.08
2019-01-23T09:20:27.052Z,5.44
2019-01-23T09:22:58.819Z,5.47
2019-01-23T09:25:30.483Z,5.62
2019-01-23T09:28:02.418Z,5.90
2019-01-23T09:30:40.249Z,5.79
2019-01-23T09:33:39.635Z,5.88
2019-01-23T09:36:42.808Z,6.25
2019-01-23T09:39:56.526Z,6.48
2019-01-23T09:43:08.851Z,6.34
2019-01-23T09:46:13.352Z,6.08
2019-01-23T09:49:26.794Z,5.93
2019-01-23T09:52:20.624Z,6.02
2019-01-23T09:54:52.066Z,6.01
2019-01-23T09:57:23.788Z,6.08
2019-01-23T09:59:55.607Z,5.93
2019-01-23T10:02:27.393Z,5.79
2019-01-23T10:04:59.113Z,5.74
2019-01-23T10:07:30.566Z,5.73
2019-01-23T10:10:02.086Z,5.51
2019-01-23T10:12:33.682Z,5.60
2019-01-23T10:15:06.181Z,5.65
2019-01-23T10:17:37.832Z,5.80
2019-01-23T10:20:09.392Z,5.90
2019-01-23T10:22:40.616Z,5.91
2019-01-23T10:25:13.321Z,5.98
2019-01-23T10:27:45.059Z,6.05
2019-01-23T10:30:16.835Z,6.08
2019-01-23T10:32:48.556Z,5.97
2019-01-23T10:35:20.285Z,6.10
2019-01-23T10:37:52.044Z,6.58
2019-01-23T10:40:23.829Z,6.76
2019-01-23T10:42:55.527Z,7.11
2019-01-23T10:45:27.322Z,7.19
2019-01-23T10:47:58.854Z,7.12
2019-01-23T10:50:30.806Z,7.12
2019-01-23T10:53:02.538Z,6.96
2019-01-23T10:55:34.306Z,6.97
2019-01-23T10:58:07.128Z,6.89
2019-01-23T11:00:39.167Z,6.59
2019-01-23T11:03:10.786Z,6.34
2019-01-23T11:05:42.400Z,6.19
2019-01-23T11:08:13.836Z,6.05
2019-01-23T11:10:45.582Z,6.16
2019-01-23T11:13:17.019Z,6.26
2019-01-23T11:15:48.619Z,6.44
2019-01-23T11:18:20.209Z,6.46
2019-01-23T11:20:51.790Z,6.46
2019-01-23T11:23:23.782Z,6.61
2019-01-23T11:25:55.154Z,6.81
2019-01-23T11:28:26.920Z,7.14
2019-01-23T11:30:58.517Z,7.64
2019-01-23T11:33:30.221Z,7.85
2019-01-23T11:36:02.019Z,7.93
2019-01-23T11:38:33.681Z,7.80
2019-01-23T11:41:05.639Z,7.85
2019-01-23T11:43:36.975Z,7.68
2019-01-23T11:46:08.717Z,7.82
2019-01-23T11:48:39.955Z,7.68
2019-01-23T11:51:11.428Z,7.70
2019-01-23T11:53:42.940Z,7.60
2019-01-23T11:56:14.736Z,7.57
2019-01-23T11:58:46.367Z,7.56
2019-01-23T12:01:18.038Z,7.51
2019-01-23T12:03:49.577Z,7.49
2019-01-23T12:06:21.412Z,7.52
2019-01-23T12:08:53.179Z,7.34
2019-01-23T12:11:24.987Z,7.07
2019-01-23T12:13:56.676Z,6.69
2019-01-23T12:16:28.323Z,6.79
2019-01-23T12:18:59.757Z,6.82
2019-01-23T12:21:33.586Z,6.82
2019-01-23T12:24:06.543Z,6.86
2019-01-23T12:26:38.224Z,7.02
2019-01-23T12:29:09.878Z,7.16
2019-01-23T12:31:41.694Z,7.27
2019-01-23T12:34:13.274Z,7.14
2019-01-23T12:36:45.004Z,7.22
2019-01-23T12:39:16.674Z,7.14
2019-01-23T12:41:48.199Z,7.31
2019-01-23T12:44:19.729Z,7.29
2019-01-23T12:46:51.110Z,7.13
2019-01-23T12:49:22.795Z,7.25
2019-01-23T12:51:54.229Z,7.23
2019-01-23T12:54:25.515Z,7.29
2019-01-23T12:56:57.341Z,7.14
2019-01-23T12:59:28.939Z,7.15
2019-01-23T13:02:00.392Z,6.96
2019-01-23T13:04:32.016Z,7.00
2019-01-23T13:07:04.333Z,7.11
2019-01-23T13:09:35.741Z,7.29
2019-01-23T13:12:07.434Z,7.30
2019-01-23T13:14:39.122Z,7.48
2019-01-23T13:17:11.053Z,7.48
2019-01-23T13:19:42.931Z,7.53
2019-01-23T13:22:14.527Z,7.51
2019-01-23T13:24:46.109Z,7.60
2019-01-23T13:27:17.762Z,7.47
2019-01-23T13:29:49.380Z,7.58
2019-01-23T13:32:21.110Z,7.50
2019-01-23T13:34:52.705Z,7.43
2019-01-23T13:37:24.268Z,7.48
2019-01-23T13:39:55.737Z,7.54
2019-01-23T13:42:27.263Z,7.48
2019-01-23T13:44:58.913Z,7.52
2019-01-23T13:47:30.705Z,7.54
2019-01-23T13:50:02.416Z,7.50
2019-01-23T13:52:34.107Z,7.51
2019-01-23T13:55:07.059Z,7.43
2019-01-23T13:57:38.553Z,7.54
2019-01-23T14:00:14.175Z,7.52
2019-01-23T14:02:46.119Z,7.34
2019-01-23T14:05:18.220Z,7.28
2019-01-23T14:07:49.925Z,7.23
2019-01-23T14:10:21.795Z,7.38
2019-01-23T14:12:53.704Z,7.25
2019-01-23T14:15:30.705Z,7.27
2019-01-23T14:18:02.372Z,7.25
2019-01-23T14:20:33.985Z,7.25
2019-01-23T14:23:05.600Z,7.05
2019-01-23T14:25:37.416Z,6.99
2019-01-23T14:28:08.886Z,7.09
2019-01-23T14:30:42.646Z,7.14
2019-01-23T14:33:14.167Z,6.99
2019-01-23T14:35:46.711Z,6.89
2019-01-23T14:38:18.267Z,6.85
2019-01-23T14:40:49.689Z,6.92
2019-01-23T14:43:21.443Z,6.70
2019-01-23T14:45:53.212Z,6.69
2019-01-23T14:48:24.865Z,6.72
2019-01-23T14:50:56.316Z,6.67
2019-01-23T14:53:28.200Z,6.50
2019-01-23T14:55:59.851Z,6.34
2019-01-23T14:58:31.310Z,6.34
2019-01-23T15:01:03.051Z,6.30
2019-01-23T15:03:34.682Z,6.19
2019-01-23T15:06:06.421Z,6.00
2019-01-23T15:08:38.234Z,5.84
2019-01-23T15:11:10.137Z,5.80
2019-01-23T15:13:41.766Z,5.59
2019-01-23T15:16:13.495Z,5.59
2019-01-23T15:18:45.040Z,5.47
2019-01-23T15:21:16.683Z,5.49
2019-01-23T15:23:48.288Z,5.53
2019-01-23T15:26:19.892Z,5.55
2019-01-23T15:28:51.359Z,5.49
2019-01-23T15:31:22.876Z,5.39
2019-01-23T15:33:54.627Z,5.41
2019-01-23T15:36:26.097Z,5.31
2019-01-23T15:38:57.540Z,5.28
2019-01-23T15:41:29.165Z,5.26
2019-01-23T15:44:00.651Z,5.31
2019-01-23T15:46:32.137Z,5.26
2019-01-23T15:49:03.776Z,5.17
2019-01-23T15:51:35.290Z,5.14
2019-01-23T15:54:06.977Z,5.14
2019-01-23T15:56:38.413Z,5.19
2019-01-23T15:59:10.043Z,5.13
2019-01-23T16:01:41.909Z,5.09
2019-01-23T16:04:13.362Z,5.11
2019-01-23T16:06:44.829Z,5.05
2019-01-23T16:09:16.544Z,5.11
2019-01-23T16:11:48.033Z,5.07
2019-01-23T16:14:20.430Z,5.10
2019-01-23T16:16:52.115Z,5.12
2019-01-23T16:19:23.918Z,5.13
2019-01-23T16:21:55.255Z,5.05
2019-01-23T16:24:26.943Z,5.07
2019-01-23T16:26:58.674Z,4.94
2019-01-23T16:29:30.084Z,4.98
2019-01-23T16:32:01.474Z,5.02
2019-01-23T16:34:32.741Z,4.99
2019-01-23T16:37:04.266Z,5.07
2019-01-23T16:39:37.314Z,5.07
2019-01-23T16:42:08.906Z,5.00
2019-01-23T16:44:40.638Z,4.95
2019-01-23T16:47:12.324Z,4.98
2019-01-23T16:49:44.124Z,4.98
2019-01-23T16:52:15.604Z,4.93
2019-01-23T16:54:47.063Z,4.89
2019-01-23T16:57:18.582Z,4.83
2019-01-23T16:59:50.384Z,4.89
2019-01-23T17:02:21.708Z,4.85
2019-01-23T17:04:53.285Z,4.78
2019-01-23T17:07:24.542Z,4.69
2019-01-23T17:09:56.240Z,4.62
2019-01-23T17:12:27.682Z,4.64
2019-01-23T17:14:59.611Z,4.63
2019-01-23T17:17:31.256Z,4.59
2019-01-23T17:20:02.858Z,4.59
2019-01-23T17:22:35.828Z,4.67
2019-01-23T17:25:08.765Z,4.70
2019-01-23T17:27:40.612Z,4.72
2019-01-23T17:30:13.144Z,4.68
2019-01-23T17:32:45.787Z,4.66
2019-01-23T17:35:18.607Z,4.55
2019-01-23T17:37:50.172Z,4.46
2019-01-23T17:40:21.799Z,4.51
2019-01-23T17:42:53.547Z,4.53
2019-01-23T17:45:27.197Z,4.47
2019-01-23T17:47:59.214Z,4.54
2019-01-23T17:50:31.192Z,4.46
2019-01-23T17:53:02.857Z,4.37
2019-01-23T17:55:36.187Z,4.48
2019-01-23T17:58:09.787Z,4.57
2019-01-23T18:00:47.176Z,4.66
2019-01-23T18:03:19.010Z,4.56
2019-01-23T18:05:51.272Z,4.76
2019-01-23T18:08:23.212Z,4.79
2019-01-23T18:10:54.578Z,4.71
2019-01-23T18:13:26.329Z,4.78
2019-01-23T18:16:03.284Z,4.76
2019-01-23T18:18:34.996Z,4.81
2019-01-23T18:21:06.821Z,4.81
2019-01-23T18:23:38.501Z,4.76
2019-01-23T18:26:11.154Z,4.62
2019-01-23T18:28:42.943Z,4.66
2019-01-23T18:31:50.546Z,4.65
2019-01-23T18:35:04.069Z,4.68
2019-01-23T18:38:28.413Z,4.64
2019-01-23T18:41:12.723Z,4.66
2019-01-23T18:44:14.720Z,4.67
2019-01-23T18:47:37.805Z,4.79
2019-01-23T18:50:55.240Z,4.86
2019-01-23T18:53:27.810Z,4.79
2019-01-23T18:55:59.446Z,4.81
2019-01-23T18:58:30.775Z,4.88
2019-01-23T19:01:02.273Z,4.82
2019-01-23T19:03:34.039Z,4.82
2019-01-23T19:06:05.648Z,4.73
2019-01-23T19:08:37.283Z,4.75
2019-01-23T19:11:09.012Z,4.77
2019-01-23T19:13:40.656Z,4.85
2019-01-23T19:16:12.455Z,4.79
2019-01-23T19:18:44.004Z,4.85
2019-01-23T19:21:15.639Z,4.86
2019-01-23T19:23:47.196Z,4.91
2019-01-23T19:26:18.924Z,4.98
2019-01-23T19:28:50.469Z,4.89
2019-01-23T19:31:21.786Z,4.90
2019-01-23T19:33:53.322Z,4.89
2019-01-23T19:36:24.866Z,4.95
2019-01-23T19:38:56.418Z,5.01
2019-01-23T19:41:28.034Z,5.13
2019-01-23T19:43:59.636Z,5.17
2019-01-23T19:46:31.104Z,5.19
2019-01-23T19:49:02.604Z,5.10
2019-01-23T19:51:34.025Z,5.20
2019-01-23T19:54:06.157Z,5.20
2019-01-23T19:56:37.788Z,5.16
2019-01-23T19:59:09.523Z,5.13
2019-01-23T20:01:41.261Z,5.15
2019-01-23T20:04:12.809Z,5.24
2019-01-23T20:06:44.432Z,5.32
2019-01-23T20:09:15.976Z,5.29
2019-01-23T20:11:47.638Z,5.29
2019-01-23T20:14:19.212Z,5.33
2019-01-23T20:16:50.769Z,5.32
2019-01-23T20:19:22.279Z,5.32
2019-01-23T20:21:53.917Z,5.37
2019-01-23T20:24:25.247Z,5.43
2019-01-23T20:26:56.736Z,5.40
2019-01-23T20:29:28.507Z,5.40
2019-01-23T20:32:00.286Z,5.27
2019-01-23T20:34:31.765Z,5.27
2019-01-23T20:37:03.158Z,5.42
2019-01-23T20:39:34.686Z,5.24
2019-01-23T20:42:06.118Z,5.14
2019-01-23T20:44:37.822Z,5.18
2019-01-23T20:47:09.472Z,5.12
2019-01-23T20:49:41.156Z,5.05
2019-01-23T20:52:12.765Z,5.01
2019-01-23T20:54:44.429Z,5.01
2019-01-23T20:57:16.099Z,5.15
2019-01-23T20:59:47.579Z,5.14
2019-01-23T21:02:19.266Z,5.15
2019-01-23T21:04:50.651Z,5.21
2019-01-23T21:07:22.018Z,5.19
2019-01-23T21:09:53.627Z,5.26
2019-01-23T21:12:24.953Z,5.25
2019-01-23T21:14:56.302Z,5.40
2019-01-23T21:17:27.680Z,5.59
2019-01-23T21:19:59.517Z,5.48
2019-01-23T21:22:31.093Z,5.46
2019-01-23T21:25:02.815Z,5.46
2019-01-23T21:27:34.295Z,5.45
2019-01-23T21:30:08.507Z,5.48
2019-01-23T21:32:41.295Z,5.42
2019-01-23T21:35:13.244Z,5.41
2019-01-23T21:37:45.760Z,5.45
2019-01-23T21:40:19.594Z,5.52
2019-01-23T21:42:51.079Z,5.52
2019-01-23T21:45:22.727Z,5.56
2019-01-23T21:47:54.313Z,5.62
2019-01-23T21:50:26.328Z,5.48
2019-01-23T21:52:57.975Z,5.49
2019-01-23T21:55:29.709Z,5.56
2019-01-23T21:58:01.312Z,5.63
2019-01-23T22:00:44.487Z,5.71
2019-01-23T22:03:15.956Z,5.77
2019-01-23T22:05:47.352Z,5.71
2019-01-23T22:08:18.826Z,5.83
2019-01-23T22:10:50.201Z,5.65
2019-01-23T22:13:21.714Z,5.65
2019-01-23T22:15:53.012Z,5.72
2019-01-23T22:18:24.828Z,5.72
2019-01-23T22:20:56.112Z,5.76
2019-01-23T22:23:27.414Z,5.94
2019-01-23T22:25:59.067Z,5.94
2019-01-23T22:28:30.941Z,6.02
2019-01-23T22:31:02.430Z,6.00
2019-01-23T22:33:33.952Z,6.02
2019-01-23T22:36:05.491Z,6.04
2019-01-23T22:38:37.101Z,6.17
2019-01-23T22:41:08.347Z,6.20
2019-01-23T22:43:39.618Z,6.05
2019-01-23T22:46:11.215Z,5.93
2019-01-23T22:48:42.591Z,5.96
2019-01-23T22:51:14.169Z,5.96
2019-01-23T22:53:45.615Z,6.10
2019-01-23T22:56:17.327Z,6.21
2019-01-23T22:58:49.020Z,6.14
2019-01-23T23:01:31.314Z,6.10
2019-01-23T23:04:03.795Z,6.05
2019-01-23T23:06:35.278Z,5.85
2019-01-23T23:09:10.457Z,5.58
2019-01-23T23:11:41.871Z,5.51
2019-01-23T23:14:13.399Z,5.53
2019-01-23T23:16:44.860Z,5.34
2019-01-23T23:19:16.246Z,5.16
2019-01-23T23:21:47.485Z,5.34
2019-01-23T23:24:18.803Z,5.45
2019-01-23T23:26:50.385Z,5.47
2019-01-23T23:29:21.975Z,5.61
2019-01-23T23:31:53.462Z,5.75
2019-01-23T23:34:25.260Z,5.95
2019-01-23T23:36:56.709Z,6.00
2019-01-23T23:39:28.436Z,6.17
2019-01-23T23:42:00.242Z,6.23
2019-01-23T23:44:31.726Z,6.31
2019-01-23T23:47:03.120Z,6.34
2019-01-23T23:49:34.662Z,6.40
2019-01-23T23:52:06.700Z,6.38
2019-01-23T23:54:38.090Z,6.32
2019-01-23T23:57:09.646Z,6.22
2019-01-23T23:59:41.339Z,6.24
